METAR AND TAF INFORMATION
METAR FOR LFLX
ADDS - METARS form results

(0736 UTC 23 January 2020)
Data provider http://aviationweather.gov/metar/data/
 
METAR text: LFLX 230730Z AUTO 05007KT 5000 BR NSC M00/M02 Q1026 NOSIG
Conditions at: LFLX (CHATEAUROUX/DEOL, FR) observed 0730 UTC 23 January 2020
Temperature: 0.0°C (32°F)
Dewpoint: -2.0°C (28°F) [RH = 86%]
Pressure (altimeter): 30.30 inches Hg (1026.0 mb)
Winds: from the NE (50 degrees) at 8 MPH (7 knots; 3.6 m/s)
Visibility: 3 miles ( 5 km)
Ceiling: at least 12,000 feet AGL
Clouds: sky clear below 12,000 feet AGL
Weather: BR  (mist)

METAR text: LFLX 230700Z AUTO 06006KT 5000 BR NSC M00/M02 Q1026 NOSIG
Conditions at: LFLX (CHATEAUROUX/DEOL, FR) observed 0700 UTC 23 January 2020
Temperature: 0.0°C (32°F)
Dewpoint: -2.0°C (28°F) [RH = 86%]
Pressure (altimeter): 30.30 inches Hg (1026.0 mb)
Winds: from the ENE (60 degrees) at 7 MPH (6 knots; 3.1 m/s)
Visibility: 3 miles ( 5 km)
Ceiling: at least 12,000 feet AGL
Clouds: sky clear below 12,000 feet AGL
Weather: BR  (mist)

Forecast for: LFLX (CHATEAUROUX/DEOL, FR)
Text: TAF LFLX 230500Z 2306/2412 06008KT 6000 NSC
Forecast period: 0600 to 0800 UTC 23 January 2020
Forecast type: FROM: standard forecast or significant change
Winds: from the ENE (60 degrees) at 9 MPH (8 knots; 4.1 m/s)
Visibility: 4 miles (6 km)
Ceiling: unknown
Clouds: missing
Weather: no significant weather forecast for this period
Text: PROB30
Forecast period: 0600 to 0800 UTC 23 January 2020
Forecast type: TEMPORARY: The following changes expected for less than half the time period
Visibility: 2.49 miles (4.01 km)
Ceiling: unknown
Clouds: missing
Weather: BR  (mist)
Text: TEMPO 2306/2308 4000 BR
Forecast period: 0800 UTC 23 January 2020 to 1200 UTC 24 January 2020
Forecast type: BECOMING: Conditions expected to become as follows by 1000 UTC 23 January 2020
Winds: from the ENE (60 degrees) at 9 MPH (8 knots; 4.1 m/s)
Visibility: 6 or more miles 10+ km)
Ceiling: unknown
Clouds: missing
Weather: NSW  (no significant weather)
Text: BECMG 2308/2310 CAVOK
Forecast period: 2200 UTC 23 January 2020 to 0800 UTC 24 January 2020
Forecast type: TEMPORARY: The following changes expected for less than half the time period
Visibility: 2.49 miles (4.01 km)
Ceiling: unknown
Clouds: missing
Weather: BR  (mist)

 AIRPORT MAP

 RUNWAY INFORMATION
Runway 04 Runway length 11483 ft Runway width 148 ft
Runway elevation 529 ft Runway displaced threshold 0 ft Runway heading 34
Runway 22 Runway length 11483 ft Runway width 148 ft
Runway elevation 518 ft Runway displaced threshold 0 ft Runway heading 214

 AIRPORT FREQUENCIES
Type AFIS Name CHATEAUROU Frequency 125.875 MHZ
Type ARR Name POITERS AP Frequency 130.9 MHZ
Type TWR Name CHATEAUROU Frequency 125.875 MHZ

 AIRPORT NEAR NAVIGATION AIDS
Type NDB Name Châteauroux Frequency 428 KHZ



Powered by Virtual Airlines Manager [v2.6.2]